Ludlow, California
Current Conditions -  °F | °C
As of 4:56 AM on Wednesday 26 Nov 2014 (Local Time) from KNXP Reporting Station
Clear Clear  
Wind Chill: 41°   Ceiling: Unl
Heat Index: 46°   Visibility: 10mi
Dew Point:   Wind: 9mph
Humidity: 18%   Direction: 330°NNW
Pressure: 30.41"   Gusts: NA
Location:  34.72°N, 116.16°W
Report Text: KNXP 261256Z AUTO 33008KT 10SM CLR 08/M16 A3041 RMK AO2 SLP277 T00781156 $
Loading
Personal Weather Stations






























Interactive Weather Map New forecast layout! Learn more

10-Day Weather Forecast

Advertisements
Track Severe Weather on mobile